createdAt,value
2022-11-27T00:02:21.282Z,6.90
2022-11-27T00:04:48.874Z,6.90
2022-11-27T00:07:16.410Z,6.90
2022-11-27T00:09:43.888Z,6.80
2022-11-27T00:12:11.513Z,6.80
2022-11-27T00:14:39.067Z,6.60
2022-11-27T00:17:06.597Z,6.60
2022-11-27T00:19:34.171Z,6.60
2022-11-27T00:22:01.704Z,6.60
2022-11-27T00:24:29.199Z,6.50
2022-11-27T00:26:56.943Z,6.50
2022-11-27T00:29:24.548Z,6.50
2022-11-27T00:31:52.113Z,6.50
2022-11-27T00:34:19.606Z,6.50
2022-11-27T00:36:48.429Z,6.50
2022-11-27T00:39:16.201Z,6.50
2022-11-27T00:41:43.797Z,6.50
2022-11-27T00:44:12.341Z,6.50
2022-11-27T00:46:41.938Z,6.50
2022-11-27T00:49:11.528Z,6.50
2022-11-27T00:51:39.136Z,6.50
2022-11-27T00:54:06.849Z,6.50
2022-11-27T00:56:36.244Z,6.50
2022-11-27T00:59:04.588Z,6.50
2022-11-27T01:01:33.825Z,6.50
2022-11-27T01:04:02.389Z,6.60
2022-11-27T01:06:30.382Z,6.60
2022-11-27T01:08:58.396Z,6.70
2022-11-27T01:11:27.358Z,6.70
2022-11-27T01:13:59.726Z,6.70
2022-11-27T01:16:28.387Z,6.70
2022-11-27T01:18:57.848Z,6.60
2022-11-27T01:21:26.324Z,6.60
2022-11-27T01:23:54.632Z,6.60
2022-11-27T01:26:22.468Z,6.60
2022-11-27T01:28:54.071Z,6.60
2022-11-27T01:31:23.078Z,6.60
2022-11-27T01:33:55.284Z,6.60
2022-11-27T01:36:23.650Z,6.50
2022-11-27T01:38:51.268Z,6.50
2022-11-27T01:41:18.753Z,6.50
2022-11-27T01:43:51.180Z,6.20
2022-11-27T01:46:18.731Z,6.40
2022-11-27T01:48:47.201Z,6.40
2022-11-27T01:51:14.756Z,6.40
2022-11-27T01:53:42.344Z,6.30
2022-11-27T01:56:10.169Z,6.40
2022-11-27T01:58:37.738Z,6.40
2022-11-27T02:01:05.592Z,6.40
2022-11-27T02:03:35.235Z,6.30
2022-11-27T02:06:02.786Z,6.20
2022-11-27T02:08:30.304Z,6.20
2022-11-27T02:11:08.700Z,6.10
2022-11-27T02:13:40.863Z,6.10
2022-11-27T02:16:27.105Z,6.10
2022-11-27T02:19:07.623Z,6.10
2022-11-27T02:21:52.060Z,6.10
2022-11-27T02:24:32.002Z,6.10
2022-11-27T02:26:59.379Z,6.10
2022-11-27T02:29:28.978Z,6.20
2022-11-27T02:31:59.758Z,6.20
2022-11-27T02:34:36.551Z,6.20
2022-11-27T02:37:10.894Z,6.20
2022-11-27T02:39:44.868Z,6.20
2022-11-27T02:42:15.504Z,6.10
2022-11-27T02:44:49.557Z,6.10
2022-11-27T02:47:17.466Z,6.00
2022-11-27T02:49:45.807Z,5.90
2022-11-27T02:52:15.136Z,5.90
2022-11-27T02:54:43.747Z,5.80
2022-11-27T02:57:13.280Z,5.80
2022-11-27T02:59:42.166Z,5.80
2022-11-27T03:02:13.138Z,5.70
2022-11-27T03:04:46.607Z,5.70
2022-11-27T03:07:16.640Z,5.80
2022-11-27T03:09:46.635Z,5.80
2022-11-27T03:12:14.777Z,5.70
2022-11-27T03:14:42.945Z,5.70
2022-11-27T03:17:22.934Z,5.60
2022-11-27T03:19:58.464Z,5.70
2022-11-27T03:22:28.177Z,5.60
2022-11-27T03:24:55.687Z,5.70
2022-11-27T03:27:26.193Z,5.60
2022-11-27T03:30:00.864Z,5.40
2022-11-27T03:32:29.277Z,5.50
2022-11-27T03:34:57.337Z,5.40
2022-11-27T03:37:25.024Z,5.40
2022-11-27T03:39:52.547Z,5.50
2022-11-27T03:42:39.002Z,5.50
2022-11-27T03:45:25.366Z,5.40
2022-11-27T03:48:02.098Z,5.50
2022-11-27T03:50:48.348Z,5.60
2022-11-27T03:53:34.610Z,5.70
2022-11-27T03:56:13.222Z,5.80
2022-11-27T03:58:40.759Z,5.80
2022-11-27T04:01:10.991Z,5.80
2022-11-27T04:03:38.983Z,5.80
2022-11-27T04:06:06.493Z,5.80
2022-11-27T04:08:33.915Z,5.80
2022-11-27T04:11:01.464Z,5.70
2022-11-27T04:13:28.958Z,5.70
2022-11-27T04:15:56.543Z,5.60
2022-11-27T04:18:24.008Z,5.50
2022-11-27T04:20:51.447Z,5.50
2022-11-27T04:23:18.959Z,5.30
2022-11-27T04:25:46.530Z,5.30
2022-11-27T04:28:14.030Z,5.30
2022-11-27T04:30:41.612Z,5.30
2022-11-27T04:33:09.110Z,5.20
2022-11-27T04:35:36.797Z,5.20
2022-11-27T04:38:04.256Z,5.20
2022-11-27T04:40:31.759Z,5.20
2022-11-27T04:42:59.415Z,5.00
2022-11-27T04:45:26.866Z,4.90
2022-11-27T04:47:54.415Z,4.80
2022-11-27T04:50:21.846Z,4.90
2022-11-27T04:52:49.345Z,5.00
2022-11-27T04:55:16.963Z,5.00
2022-11-27T04:57:44.438Z,4.90
2022-11-27T05:00:12.591Z,4.90
2022-11-27T05:02:40.427Z,5.00
2022-11-27T05:05:08.243Z,5.00
2022-11-27T05:07:35.801Z,4.90
2022-11-27T05:10:04.224Z,4.80
2022-11-27T05:12:32.160Z,4.80
2022-11-27T05:15:04.041Z,4.90
2022-11-27T05:17:32.123Z,5.10
2022-11-27T05:19:59.678Z,5.00
2022-11-27T05:22:27.252Z,5.00
2022-11-27T05:24:54.769Z,4.90
2022-11-27T05:27:22.152Z,5.00
2022-11-27T05:29:49.849Z,5.00
2022-11-27T05:32:17.392Z,5.00
2022-11-27T05:34:44.815Z,5.00
2022-11-27T05:37:19.085Z,5.10
2022-11-27T05:39:47.512Z,5.00
2022-11-27T05:42:14.981Z,4.90
2022-11-27T05:44:42.837Z,4.90
2022-11-27T05:47:10.504Z,4.80
2022-11-27T05:49:38.728Z,4.90
2022-11-27T05:52:06.290Z,4.90
2022-11-27T05:54:33.699Z,4.80
2022-11-27T05:57:01.329Z,4.70
2022-11-27T05:59:28.788Z,4.80
2022-11-27T06:01:56.353Z,4.70
2022-11-27T06:04:24.045Z,4.60
2022-11-27T06:06:51.689Z,4.70
2022-11-27T06:09:19.132Z,4.70
2022-11-27T06:11:46.897Z,4.60
2022-11-27T06:14:14.467Z,4.70
2022-11-27T06:16:42.196Z,4.70
2022-11-27T06:19:09.890Z,4.70
2022-11-27T06:21:37.739Z,4.90
2022-11-27T06:24:05.577Z,4.90
2022-11-27T06:26:33.448Z,4.90
2022-11-27T06:29:01.424Z,4.90
2022-11-27T06:31:30.635Z,5.10
2022-11-27T06:33:58.629Z,5.00
2022-11-27T06:36:34.326Z,5.10
2022-11-27T06:39:02.510Z,5.00
2022-11-27T06:41:30.165Z,4.90
2022-11-27T06:43:58.947Z,4.90
2022-11-27T06:46:26.796Z,4.60
2022-11-27T06:48:54.877Z,4.50
2022-11-27T06:51:23.998Z,4.50
2022-11-27T06:53:52.423Z,4.60
2022-11-27T06:56:21.518Z,4.60
2022-11-27T06:58:56.322Z,4.70
2022-11-27T07:01:24.379Z,4.80
2022-11-27T07:03:52.187Z,4.80
2022-11-27T07:06:24.217Z,4.80
2022-11-27T07:08:52.402Z,4.90
2022-11-27T07:11:21.337Z,4.90
2022-11-27T07:13:49.661Z,4.90
2022-11-27T07:16:17.887Z,5.00
2022-11-27T07:18:46.925Z,5.00
2022-11-27T07:21:14.575Z,5.20
2022-11-27T07:23:42.345Z,5.40
2022-11-27T07:26:11.571Z,5.40
2022-11-27T07:28:39.436Z,5.50
2022-11-27T07:31:07.070Z,5.50
2022-11-27T07:33:34.598Z,5.80
2022-11-27T07:36:10.958Z,5.90
2022-11-27T07:38:38.556Z,5.90
2022-11-27T07:41:06.790Z,5.90
2022-11-27T07:43:34.714Z,5.90
2022-11-27T07:46:06.016Z,6.00
2022-11-27T07:48:33.969Z,6.00
2022-11-27T07:51:01.606Z,6.10
2022-11-27T07:53:29.156Z,6.20
2022-11-27T07:55:59.259Z,6.20
2022-11-27T07:58:26.755Z,6.30
2022-11-27T08:00:55.067Z,6.20
2022-11-27T08:03:23.216Z,6.40
2022-11-27T08:05:50.771Z,6.50
2022-11-27T08:08:18.288Z,6.60
2022-11-27T08:10:45.843Z,6.70
2022-11-27T08:13:13.388Z,6.80
2022-11-27T08:15:40.840Z,6.90
2022-11-27T08:18:08.379Z,6.90
2022-11-27T08:20:35.769Z,6.90
2022-11-27T08:23:03.426Z,7.00
2022-11-27T08:25:31.511Z,6.90
2022-11-27T08:27:59.094Z,6.80
2022-11-27T08:30:26.616Z,6.90
2022-11-27T08:32:54.191Z,6.80
2022-11-27T08:35:22.764Z,7.10
2022-11-27T08:37:50.344Z,7.10
2022-11-27T08:40:17.828Z,7.10
2022-11-27T08:42:45.369Z,7.10
2022-11-27T08:45:12.941Z,7.20
2022-11-27T08:47:40.754Z,7.40
2022-11-27T08:50:08.517Z,7.50
2022-11-27T08:52:36.040Z,7.60
2022-11-27T08:55:04.001Z,7.70
2022-11-27T08:57:31.543Z,7.80
2022-11-27T08:59:58.911Z,7.90
2022-11-27T09:02:26.412Z,8.00
2022-11-27T09:04:53.928Z,8.10
2022-11-27T09:07:21.520Z,8.10
2022-11-27T09:09:49.016Z,8.30
2022-11-27T09:12:16.467Z,8.40
2022-11-27T09:14:44.015Z,8.40
2022-11-27T09:17:11.654Z,8.50
2022-11-27T09:19:39.114Z,8.60
2022-11-27T09:22:06.576Z,8.70
2022-11-27T09:24:34.150Z,8.80
2022-11-27T09:27:01.753Z,8.90
2022-11-27T09:29:29.281Z,9.20
2022-11-27T09:31:57.078Z,9.30
2022-11-27T09:34:24.859Z,9.30
2022-11-27T09:36:52.475Z,9.30
2022-11-27T09:39:20.410Z,9.30
2022-11-27T09:41:55.126Z,9.40
2022-11-27T09:44:25.229Z,9.40
2022-11-27T09:46:54.441Z,9.40
2022-11-27T09:49:31.421Z,9.50
2022-11-27T09:51:58.834Z,9.50
2022-11-27T09:54:49.402Z,9.70
2022-11-27T09:57:23.471Z,9.70
2022-11-27T09:59:52.477Z,9.90
2022-11-27T10:02:30.849Z,10.10
2022-11-27T10:05:15.934Z,10.10
2022-11-27T10:07:54.528Z,10.30
2022-11-27T10:10:22.114Z,10.50
2022-11-27T10:12:49.639Z,10.60
2022-11-27T10:15:27.735Z,10.70
2022-11-27T10:18:05.050Z,10.80
2022-11-27T10:20:37.123Z,11.00
2022-11-27T10:23:16.228Z,11.10
2022-11-27T10:25:50.770Z,11.10
2022-11-27T10:28:33.845Z,11.20
2022-11-27T10:31:04.410Z,11.30
2022-11-27T10:33:38.661Z,11.40
2022-11-27T10:36:11.036Z,11.70
2022-11-27T10:38:40.225Z,11.80
2022-11-27T10:41:18.677Z,11.90
2022-11-27T10:44:01.781Z,12.00
2022-11-27T10:46:32.497Z,12.10
2022-11-27T10:49:00.070Z,12.10
2022-11-27T10:51:37.960Z,12.10
2022-11-27T10:54:07.519Z,12.30
2022-11-27T10:56:50.431Z,12.30
2022-11-27T10:59:33.200Z,12.40
2022-11-27T11:02:03.594Z,12.60
2022-11-27T11:04:38.017Z,12.70
2022-11-27T11:07:24.251Z,12.70
2022-11-27T11:09:52.100Z,12.80
2022-11-27T11:12:21.404Z,12.90
2022-11-27T11:14:53.190Z,13.10
2022-11-27T11:17:28.190Z,13.10
2022-11-27T11:19:55.763Z,13.20
2022-11-27T11:22:24.144Z,13.20
2022-11-27T11:24:52.756Z,13.30
2022-11-27T11:27:21.546Z,13.30
2022-11-27T11:29:54.185Z,13.50
2022-11-27T11:32:24.871Z,13.60
2022-11-27T11:35:00.812Z,13.70
2022-11-27T11:37:30.684Z,13.80
2022-11-27T11:40:04.316Z,13.90
2022-11-27T11:42:33.080Z,13.90
2022-11-27T11:45:16.961Z,14.10
2022-11-27T11:47:47.445Z,14.10
2022-11-27T11:50:16.909Z,14.10
2022-11-27T11:52:57.862Z,14.20
2022-11-27T11:55:36.688Z,14.40
2022-11-27T11:58:10.288Z,14.50
2022-11-27T12:01:11.813Z,14.10
2022-11-27T12:03:39.531Z,14.00
2022-11-27T12:06:19.900Z,14.20
2022-11-27T12:08:47.390Z,14.40
2022-11-27T12:11:20.261Z,14.30
2022-11-27T12:13:50.627Z,14.50
2022-11-27T12:16:25.240Z,14.50
2022-11-27T12:19:18.176Z,14.20
2022-11-27T12:21:55.449Z,14.30
2022-11-27T12:24:38.494Z,14.50
2022-11-27T12:27:15.244Z,14.70
2022-11-27T12:29:59.170Z,14.90
2022-11-27T12:32:26.701Z,15.00
2022-11-27T12:35:03.304Z,15.00
2022-11-27T12:37:40.549Z,14.90
2022-11-27T12:40:16.518Z,14.60
2022-11-27T12:42:49.768Z,14.60
2022-11-27T12:45:22.667Z,14.70
2022-11-27T12:47:56.788Z,14.90
2022-11-27T12:50:27.581Z,14.90
2022-11-27T12:53:11.764Z,15.00
2022-11-27T12:55:40.730Z,15.20
2022-11-27T12:58:16.544Z,14.90
2022-11-27T13:00:44.294Z,14.90
2022-11-27T13:03:15.763Z,14.80
2022-11-27T13:05:56.037Z,14.80
2022-11-27T13:08:42.044Z,14.60
2022-11-27T13:11:13.979Z,14.60
2022-11-27T13:13:46.369Z,14.70
2022-11-27T13:16:22.412Z,14.60
2022-11-27T13:18:53.076Z,14.70
2022-11-27T13:21:23.952Z,14.80
2022-11-27T13:23:52.377Z,14.80
2022-11-27T13:26:26.347Z,14.80
2022-11-27T13:28:56.332Z,14.70
2022-11-27T13:31:31.986Z,14.30
2022-11-27T13:34:01.561Z,14.20
2022-11-27T13:36:40.167Z,14.10
2022-11-27T13:39:20.871Z,14.20
2022-11-27T13:41:48.754Z,14.20
2022-11-27T13:44:26.923Z,14.10
2022-11-27T13:46:55.420Z,14.00
2022-11-27T13:49:33.767Z,13.80
2022-11-27T13:52:05.728Z,13.50
2022-11-27T13:54:33.412Z,13.60
2022-11-27T13:57:15.104Z,13.60
2022-11-27T13:59:54.400Z,13.60
2022-11-27T14:02:22.008Z,13.50
2022-11-27T14:04:55.804Z,13.20
2022-11-27T14:07:24.311Z,13.20
2022-11-27T14:09:53.509Z,13.30
2022-11-27T14:12:28.315Z,13.30
2022-11-27T14:15:01.566Z,13.20
2022-11-27T14:17:37.192Z,13.20
2022-11-27T14:20:20.025Z,13.10
2022-11-27T14:23:14.078Z,13.10
2022-11-27T14:25:41.782Z,13.00
2022-11-27T14:28:11.962Z,12.90
2022-11-27T14:30:48.324Z,12.90
2022-11-27T14:33:30.941Z,12.90
2022-11-27T14:35:59.870Z,12.70
2022-11-27T14:38:28.482Z,12.60
2022-11-27T14:41:08.518Z,12.50
2022-11-27T14:43:36.019Z,12.60
2022-11-27T14:46:05.424Z,12.60
2022-11-27T14:48:41.667Z,12.70
2022-11-27T14:51:14.075Z,12.60
2022-11-27T14:53:42.182Z,12.40
2022-11-27T14:56:09.892Z,12.20
2022-11-27T14:58:39.272Z,12.20
2022-11-27T15:01:07.636Z,12.20
2022-11-27T15:03:35.244Z,12.20
2022-11-27T15:06:04.124Z,12.10
2022-11-27T15:08:36.056Z,12.10
2022-11-27T15:11:04.531Z,12.00
2022-11-27T15:13:35.874Z,11.80
2022-11-27T15:16:05.604Z,11.60
2022-11-27T15:18:36.102Z,11.60
2022-11-27T15:21:04.264Z,11.40
2022-11-27T15:23:34.250Z,11.30
2022-11-27T15:26:01.765Z,11.20
2022-11-27T15:28:36.653Z,11.10
2022-11-27T15:31:23.582Z,11.10
2022-11-27T15:34:03.393Z,11.00
2022-11-27T15:36:42.112Z,10.80
2022-11-27T15:39:12.356Z,10.70
2022-11-27T15:41:49.794Z,10.60
2022-11-27T15:44:17.719Z,10.60
2022-11-27T15:46:45.375Z,10.40
2022-11-27T15:49:14.195Z,10.40
2022-11-27T15:51:42.258Z,10.30
2022-11-27T15:54:09.938Z,10.20
2022-11-27T15:56:38.439Z,10.30
2022-11-27T15:59:06.479Z,10.20
2022-11-27T16:01:34.083Z,10.10
2022-11-27T16:04:01.578Z,9.90
2022-11-27T16:06:29.389Z,9.90
2022-11-27T16:08:57.641Z,9.80
2022-11-27T16:11:26.004Z,9.80
2022-11-27T16:13:53.518Z,9.70
2022-11-27T16:16:21.359Z,9.60
2022-11-27T16:18:49.132Z,9.60
2022-11-27T16:21:17.302Z,9.60
2022-11-27T16:23:44.785Z,9.50
2022-11-27T16:26:13.101Z,9.50
2022-11-27T16:28:40.875Z,9.40
2022-11-27T16:31:13.712Z,9.40
2022-11-27T16:33:42.028Z,9.40
2022-11-27T16:36:11.069Z,9.30
2022-11-27T16:38:39.842Z,9.20
2022-11-27T16:41:09.604Z,9.30
2022-11-27T16:43:38.531Z,9.20
2022-11-27T16:46:07.531Z,9.20
2022-11-27T16:48:35.830Z,9.20
2022-11-27T16:51:04.866Z,9.10
2022-11-27T16:53:33.181Z,9.10
2022-11-27T16:56:00.878Z,9.10
2022-11-27T16:58:32.534Z,9.10
2022-11-27T17:01:00.279Z,8.90
2022-11-27T17:03:27.886Z,8.90
2022-11-27T17:05:55.477Z,8.90
2022-11-27T17:08:23.098Z,8.80
2022-11-27T17:10:50.673Z,8.90
2022-11-27T17:13:18.285Z,8.80
2022-11-27T17:15:45.921Z,8.80
2022-11-27T17:18:13.524Z,8.80
2022-11-27T17:20:41.577Z,8.80
2022-11-27T17:23:09.164Z,8.80
2022-11-27T17:25:36.688Z,8.70
2022-11-27T17:28:04.342Z,8.70
2022-11-27T17:30:35.149Z,8.60
2022-11-27T17:33:06.865Z,8.50
2022-11-27T17:35:34.335Z,8.50
2022-11-27T17:38:02.813Z,8.40
2022-11-27T17:40:30.978Z,8.40
2022-11-27T17:42:58.390Z,8.50
2022-11-27T17:45:26.197Z,8.50
2022-11-27T17:47:53.794Z,8.60
2022-11-27T17:50:21.642Z,8.60
2022-11-27T17:52:52.284Z,8.50
2022-11-27T17:55:19.948Z,8.50
2022-11-27T17:57:47.469Z,8.50
2022-11-27T18:00:17.032Z,8.40
2022-11-27T18:02:45.458Z,8.50
2022-11-27T18:05:14.196Z,8.50
2022-11-27T18:07:42.244Z,8.40
2022-11-27T18:10:10.171Z,8.50
2022-11-27T18:12:37.697Z,8.50
2022-11-27T18:15:05.530Z,8.50
2022-11-27T18:17:33.606Z,8.40
2022-11-27T18:20:01.354Z,8.50
2022-11-27T18:22:28.849Z,8.50
2022-11-27T18:24:56.398Z,8.50
2022-11-27T18:27:23.876Z,8.40
2022-11-27T18:29:51.408Z,8.40
2022-11-27T18:32:19.097Z,8.30
2022-11-27T18:34:46.796Z,8.40
2022-11-27T18:37:14.359Z,8.30
2022-11-27T18:39:44.607Z,8.20
2022-11-27T18:42:12.662Z,8.00
2022-11-27T18:44:44.774Z,8.10
2022-11-27T18:47:14.089Z,8.00
2022-11-27T18:49:43.444Z,8.00
2022-11-27T18:52:11.482Z,8.00
2022-11-27T18:54:39.035Z,8.00
2022-11-27T18:57:07.337Z,7.80
2022-11-27T18:59:35.403Z,7.70
2022-11-27T19:02:03.818Z,7.70
2022-11-27T19:04:31.508Z,7.70
2022-11-27T19:06:58.933Z,7.70
2022-11-27T19:09:26.535Z,7.60
2022-11-27T19:11:54.297Z,7.60
2022-11-27T19:14:23.567Z,7.60
2022-11-27T19:16:51.218Z,7.50
2022-11-27T19:19:53.315Z,7.50
2022-11-27T19:22:07.816Z,7.50
2022-11-27T19:24:35.899Z,7.50
2022-11-27T19:27:03.583Z,7.50
2022-11-27T19:29:31.350Z,7.50
2022-11-27T19:32:01.234Z,7.50
2022-11-27T19:34:29.047Z,7.50
2022-11-27T19:36:58.542Z,7.50
2022-11-27T19:39:27.413Z,7.50
2022-11-27T19:41:55.128Z,7.40
2022-11-27T19:44:23.902Z,7.40
2022-11-27T19:46:51.800Z,7.40
2022-11-27T19:49:20.234Z,7.20
2022-11-27T19:51:48.454Z,7.20
2022-11-27T19:54:19.385Z,7.10
2022-11-27T19:56:47.107Z,7.10
2022-11-27T19:59:14.734Z,7.10
2022-11-27T20:01:42.458Z,7.20
2022-11-27T20:04:13.160Z,7.20
2022-11-27T20:06:41.273Z,7.20
2022-11-27T20:09:08.697Z,7.20
2022-11-27T20:11:36.670Z,7.20
2022-11-27T20:14:06.161Z,7.10
2022-11-27T20:16:35.099Z,6.90
2022-11-27T20:19:05.676Z,6.90
2022-11-27T20:21:36.706Z,6.70
2022-11-27T20:24:04.647Z,6.60
2022-11-27T20:26:37.177Z,6.60
2022-11-27T20:29:07.898Z,6.50
2022-11-27T20:31:37.947Z,6.40
2022-11-27T20:34:06.272Z,6.50
2022-11-27T20:36:34.896Z,6.50
2022-11-27T20:39:03.226Z,6.70
2022-11-27T20:41:30.915Z,6.70
2022-11-27T20:44:00.126Z,6.70
2022-11-27T20:46:29.252Z,6.60
2022-11-27T20:48:57.185Z,6.60
2022-11-27T20:51:31.057Z,6.60
2022-11-27T20:53:59.440Z,6.70
2022-11-27T20:56:27.584Z,6.60
2022-11-27T20:58:56.305Z,6.50
2022-11-27T21:01:31.176Z,6.50
2022-11-27T21:04:00.426Z,6.40
2022-11-27T21:06:30.115Z,6.50
2022-11-27T21:09:00.195Z,6.20
2022-11-27T21:11:28.649Z,6.10
2022-11-27T21:14:00.690Z,6.30
2022-11-27T21:16:29.686Z,6.30
2022-11-27T21:18:59.123Z,6.20
2022-11-27T21:21:27.193Z,6.30
2022-11-27T21:23:54.783Z,6.30
2022-11-27T21:26:22.716Z,6.30
2022-11-27T21:28:50.642Z,6.40
2022-11-27T21:31:19.367Z,6.40
2022-11-27T21:33:48.213Z,6.40
2022-11-27T21:36:16.118Z,6.20
2022-11-27T21:38:44.261Z,6.10
2022-11-27T21:41:17.339Z,6.30
2022-11-27T21:43:45.189Z,6.30
2022-11-27T21:46:19.388Z,6.40
2022-11-27T21:48:47.713Z,6.30
2022-11-27T21:51:15.445Z,6.20
2022-11-27T21:53:43.705Z,6.20
2022-11-27T21:56:13.292Z,6.30
2022-11-27T21:58:41.485Z,6.20
2022-11-27T22:01:13.317Z,6.20
2022-11-27T22:03:42.900Z,6.10
2022-11-27T22:06:15.223Z,6.10
2022-11-27T22:08:43.400Z,6.20
2022-11-27T22:11:15.335Z,6.20
2022-11-27T22:13:43.338Z,6.10
2022-11-27T22:16:15.669Z,6.10
2022-11-27T22:18:43.373Z,6.20
2022-11-27T22:21:11.577Z,6.10
2022-11-27T22:23:39.829Z,6.40
2022-11-27T22:26:09.635Z,6.30
2022-11-27T22:28:38.153Z,6.20
2022-11-27T22:31:13.115Z,6.10
2022-11-27T22:33:41.548Z,6.10
2022-11-27T22:36:12.566Z,6.10
2022-11-27T22:38:40.662Z,6.00
2022-11-27T22:41:08.879Z,6.20
2022-11-27T22:43:36.689Z,6.10
2022-11-27T22:46:07.170Z,6.10
2022-11-27T22:48:35.055Z,5.90
2022-11-27T22:51:02.797Z,6.00
2022-11-27T22:53:30.271Z,6.10
2022-11-27T22:56:02.877Z,5.90
2022-11-27T22:58:30.672Z,5.70
2022-11-27T23:00:58.503Z,5.90
2022-11-27T23:03:26.017Z,5.90
2022-11-27T23:05:53.571Z,5.80
2022-11-27T23:08:21.123Z,5.70
2022-11-27T23:10:49.684Z,5.70
2022-11-27T23:13:17.543Z,5.60
2022-11-27T23:15:45.254Z,5.60
2022-11-27T23:18:12.670Z,5.60
2022-11-27T23:20:41.426Z,5.60
2022-11-27T23:23:09.110Z,5.60
2022-11-27T23:25:37.378Z,5.60
2022-11-27T23:28:05.462Z,5.60
2022-11-27T23:30:34.075Z,5.60
2022-11-27T23:33:01.483Z,5.70
2022-11-27T23:35:29.134Z,5.70
2022-11-27T23:37:56.606Z,5.60
2022-11-27T23:40:24.269Z,5.50
2022-11-27T23:42:51.803Z,5.50
2022-11-27T23:45:19.394Z,5.40
2022-11-27T23:47:47.847Z,5.40
2022-11-27T23:50:15.442Z,5.50
2022-11-27T23:52:42.908Z,5.80
2022-11-27T23:55:10.415Z,5.90
2022-11-27T23:57:38.038Z,5.80
